createdAt,value
2018-04-06T00:00:04.210Z,89.61
2018-04-06T00:03:08.346Z,89.79
2018-04-06T00:06:11.706Z,89.96
2018-04-06T00:09:15.203Z,89.76
2018-04-06T00:12:19.354Z,90.08
2018-04-06T00:15:22.716Z,90.05
2018-04-06T00:18:26.833Z,90.09
2018-04-06T00:21:30.194Z,89.97
2018-04-06T00:24:33.577Z,90.07
2018-04-06T00:27:36.927Z,90.13
2018-04-06T00:30:41.783Z,90.00
2018-04-06T00:33:46.017Z,90.18
2018-04-06T00:36:49.385Z,89.60
2018-04-06T00:39:52.742Z,89.23
2018-04-06T00:42:56.108Z,89.09
2018-04-06T00:46:00.272Z,89.55
2018-04-06T00:49:03.728Z,90.05
2018-04-06T00:52:07.855Z,90.17
2018-04-06T00:55:11.205Z,90.58
2018-04-06T00:58:14.560Z,90.86
2018-04-06T01:01:17.957Z,91.19
2018-04-06T01:04:21.308Z,91.52
2018-04-06T01:07:24.666Z,91.54
2018-04-06T01:10:28.022Z,91.82
2018-04-06T01:13:31.374Z,92.22
2018-04-06T01:16:34.720Z,92.24
2018-04-06T01:19:38.860Z,92.67
2018-04-06T01:22:42.236Z,92.73
2018-04-06T01:25:46.358Z,92.93
2018-04-06T01:28:50.477Z,92.83
2018-04-06T01:31:54.616Z,93.22
2018-04-06T01:34:58.021Z,93.15
2018-04-06T01:38:01.377Z,93.10
2018-04-06T01:41:04.724Z,93.25
2018-04-06T01:44:08.085Z,93.10
2018-04-06T01:47:12.226Z,93.24
2018-04-06T01:50:15.732Z,93.32
2018-04-06T01:53:19.076Z,93.37
2018-04-06T01:56:22.441Z,93.13
2018-04-06T01:59:25.865Z,92.72
2018-04-06T02:02:29.236Z,92.09
2018-04-06T02:05:32.593Z,92.03
2018-04-06T02:08:36.772Z,92.02
2018-04-06T02:11:40.131Z,91.85
2018-04-06T02:14:44.246Z,91.68
2018-04-06T02:17:48.362Z,91.73
2018-04-06T02:20:52.515Z,91.93
2018-04-06T02:23:55.901Z,91.97
2018-04-06T02:26:59.253Z,92.25
2018-04-06T02:30:02.599Z,91.98
2018-04-06T02:33:05.965Z,91.50
2018-04-06T02:36:10.094Z,91.10
2018-04-06T02:39:14.282Z,90.89
2018-04-06T02:42:17.790Z,90.19
2018-04-06T02:45:21.220Z,90.13
2018-04-06T02:48:24.669Z,89.87
2018-04-06T02:51:28.047Z,89.23
2018-04-06T02:54:31.398Z,88.93
2018-04-06T02:57:35.526Z,88.98
2018-04-06T03:00:39.858Z,88.98
2018-04-06T03:03:43.214Z,89.21
2018-04-06T03:06:48.073Z,89.62
2018-04-06T03:09:52.179Z,89.69
2018-04-06T03:12:55.529Z,89.77
2018-04-06T03:15:58.874Z,89.75
2018-04-06T03:19:02.231Z,90.03
2018-04-06T03:22:05.582Z,90.27
2018-04-06T03:25:09.697Z,90.45
2018-04-06T03:28:13.973Z,90.51
2018-04-06T03:31:17.331Z,90.57
2018-04-06T03:34:20.692Z,90.22
2018-04-06T03:37:25.570Z,90.29
2018-04-06T03:40:28.969Z,90.80
2018-04-06T03:43:32.369Z,90.76
2018-04-06T03:46:35.937Z,90.58
2018-04-06T03:49:40.801Z,90.27
2018-04-06T03:52:44.157Z,90.47
2018-04-06T03:55:47.739Z,90.79
2018-04-06T03:58:51.084Z,91.16
2018-04-06T04:01:55.203Z,91.34
2018-04-06T04:04:59.332Z,91.48
2018-04-06T04:08:03.447Z,91.50
2018-04-06T04:11:07.749Z,91.74
2018-04-06T04:14:11.104Z,91.96
2018-04-06T04:17:14.459Z,92.10
2018-04-06T04:20:18.600Z,92.32
2018-04-06T04:23:22.097Z,92.39
2018-04-06T04:26:25.450Z,92.62
2018-04-06T04:29:29.593Z,92.60
2018-04-06T04:32:33.721Z,92.84
2018-04-06T04:35:37.833Z,92.96
2018-04-06T04:38:41.942Z,93.00
2018-04-06T04:41:46.069Z,93.36
2018-04-06T04:44:50.206Z,93.45
2018-04-06T04:47:53.569Z,93.53
2018-04-06T04:50:57.682Z,93.65
2018-04-06T04:54:01.055Z,93.69
2018-04-06T04:57:04.424Z,93.56
2018-04-06T05:00:07.789Z,93.36
2018-04-06T05:03:11.919Z,93.25
2018-04-06T05:06:15.278Z,93.16
2018-04-06T05:09:20.329Z,93.13
2018-04-06T05:12:23.692Z,92.93
2018-04-06T05:15:27.063Z,92.69
2018-04-06T05:18:30.421Z,92.59
2018-04-06T05:21:33.800Z,92.36
2018-04-06T05:24:37.211Z,92.13
2018-04-06T05:27:40.523Z,91.95
2018-04-06T05:30:43.899Z,91.64
2018-04-06T05:33:47.254Z,91.26
2018-04-06T05:36:50.617Z,90.92
2018-04-06T05:39:53.981Z,90.45
2018-04-06T05:42:57.381Z,90.20
2018-04-06T05:46:00.739Z,89.93
2018-04-06T05:49:04.842Z,89.12
2018-04-06T05:52:08.964Z,88.79
2018-04-06T05:55:13.091Z,88.63
2018-04-06T05:58:17.220Z,88.54
2018-04-06T06:01:20.580Z,88.38
2018-04-06T06:04:25.466Z,87.86
2018-04-06T06:07:28.804Z,87.51
2018-04-06T06:10:32.170Z,86.96
2018-04-06T06:13:35.544Z,86.69
2018-04-06T06:16:38.903Z,86.36
2018-04-06T06:19:42.265Z,86.18
2018-04-06T06:22:46.403Z,86.08
2018-04-06T06:25:49.764Z,85.66
2018-04-06T06:28:53.150Z,85.53
2018-04-06T06:31:56.523Z,85.24
2018-04-06T06:34:59.887Z,85.09
2018-04-06T06:38:03.248Z,84.78
2018-04-06T06:41:06.747Z,84.23
2018-04-06T06:44:10.898Z,84.35
2018-04-06T06:47:14.544Z,83.86
2018-04-06T06:50:17.975Z,83.66
2018-04-06T06:53:21.487Z,83.41
2018-04-06T06:56:24.856Z,83.03
2018-04-06T06:59:28.982Z,82.96
2018-04-06T07:02:33.126Z,82.36
2018-04-06T07:05:36.496Z,82.17
2018-04-06T07:08:40.613Z,81.83
2018-04-06T07:11:44.746Z,81.00
2018-04-06T07:14:48.151Z,80.54
2018-04-06T07:17:51.513Z,79.97
2018-04-06T07:20:54.919Z,79.76
2018-04-06T07:23:59.070Z,79.64
2018-04-06T07:27:02.422Z,78.98
2018-04-06T07:30:05.806Z,79.12
2018-04-06T07:33:09.170Z,78.82
2018-04-06T07:36:12.592Z,78.58
2018-04-06T07:39:16.088Z,79.00
2018-04-06T07:42:19.436Z,77.93
2018-04-06T07:45:23.570Z,77.17
2018-04-06T07:48:26.930Z,77.82
2018-04-06T07:51:31.854Z,76.63
2018-04-06T07:54:35.284Z,75.96
2018-04-06T07:57:39.427Z,76.19
2018-04-06T08:00:42.799Z,76.00
2018-04-06T08:03:46.158Z,75.65
2018-04-06T08:06:49.518Z,74.43
2018-04-06T08:09:52.952Z,73.47
2018-04-06T08:12:56.346Z,73.46
2018-04-06T08:15:59.767Z,72.70
2018-04-06T08:19:03.133Z,71.15
2018-04-06T08:22:06.514Z,70.77
2018-04-06T08:25:09.914Z,71.52
2018-04-06T08:28:13.281Z,70.45
2018-04-06T08:31:17.393Z,70.49
2018-04-06T08:34:20.758Z,70.22
2018-04-06T08:37:24.127Z,69.55
2018-04-06T08:40:27.497Z,68.87
2018-04-06T08:43:30.874Z,68.98
2018-04-06T08:46:34.237Z,68.00
2018-04-06T08:49:37.589Z,67.45
2018-04-06T08:52:40.929Z,67.63
2018-04-06T08:55:44.295Z,67.02
2018-04-06T08:58:48.515Z,66.06
2018-04-06T09:01:51.899Z,65.46
2018-04-06T09:04:55.285Z,65.01
2018-04-06T09:07:58.648Z,64.46
2018-04-06T09:11:02.036Z,63.36
2018-04-06T09:14:05.465Z,63.54
2018-04-06T09:17:08.835Z,64.39
2018-04-06T09:20:12.213Z,63.09
2018-04-06T09:23:15.635Z,60.72
2018-04-06T09:26:19.816Z,60.21
2018-04-06T09:29:23.929Z,60.10
2018-04-06T09:32:27.347Z,59.90
2018-04-06T09:35:31.456Z,59.06
2018-04-06T09:38:34.811Z,58.90
2018-04-06T09:41:38.397Z,58.60
2018-04-06T09:44:41.755Z,59.19
2018-04-06T09:47:45.192Z,58.65
2018-04-06T09:50:48.550Z,55.80
2018-04-06T09:53:51.908Z,55.58
2018-04-06T09:56:55.256Z,53.95
2018-04-06T09:59:59.412Z,55.52
2018-04-06T10:03:03.715Z,56.85
2018-04-06T10:06:07.097Z,56.89
2018-04-06T10:09:10.518Z,54.80
2018-04-06T10:12:14.020Z,55.32
2018-04-06T10:15:18.164Z,56.00
2018-04-06T10:18:21.514Z,55.90
2018-04-06T10:21:24.921Z,54.09
2018-04-06T10:24:29.107Z,53.38
2018-04-06T10:27:32.605Z,54.93
2018-04-06T10:30:35.973Z,54.32
2018-04-06T10:33:39.358Z,51.60
2018-04-06T10:36:42.855Z,50.26
2018-04-06T10:39:46.989Z,51.01
2018-04-06T10:42:50.381Z,51.86
2018-04-06T10:45:53.866Z,51.64
2018-04-06T10:48:58.019Z,52.95
2018-04-06T10:52:01.361Z,52.88
2018-04-06T10:55:04.750Z,50.31
2018-04-06T10:58:08.151Z,50.89
2018-04-06T11:01:11.594Z,50.48
2018-04-06T11:04:14.959Z,50.11
2018-04-06T11:07:18.348Z,51.27
2018-04-06T11:10:21.816Z,50.59
2018-04-06T11:13:25.240Z,49.95
2018-04-06T11:16:28.714Z,51.30
2018-04-06T11:19:32.222Z,52.07
2018-04-06T11:22:35.591Z,49.92
2018-04-06T11:25:39.729Z,50.07
2018-04-06T11:28:43.111Z,49.67
2018-04-06T11:31:47.246Z,48.99
2018-04-06T11:34:50.609Z,49.65
2018-04-06T11:37:55.579Z,50.38
2018-04-06T11:40:58.990Z,50.50
2018-04-06T11:44:02.445Z,49.29
2018-04-06T11:47:06.663Z,48.77
2018-04-06T11:50:10.799Z,48.08
2018-04-06T11:53:14.406Z,47.87
2018-04-06T11:56:17.776Z,48.57
2018-04-06T11:59:21.194Z,48.31
2018-04-06T12:02:25.357Z,46.84
2018-04-06T12:05:28.822Z,47.63
2018-04-06T12:08:32.191Z,46.98
2018-04-06T12:11:35.629Z,46.50
2018-04-06T12:14:39.130Z,46.25
2018-04-06T12:17:42.493Z,45.04
2018-04-06T12:20:45.858Z,46.88
2018-04-06T12:23:49.238Z,45.65
2018-04-06T12:26:52.610Z,46.97
2018-04-06T12:29:56.746Z,48.61
2018-04-06T12:33:00.115Z,47.39
2018-04-06T12:36:04.241Z,47.47
2018-04-06T12:39:07.609Z,46.64
2018-04-06T12:42:11.001Z,46.06
2018-04-06T12:45:14.384Z,46.30
2018-04-06T12:48:17.761Z,46.57
2018-04-06T12:51:21.139Z,45.95
2018-04-06T12:54:25.294Z,45.54
2018-04-06T12:57:28.700Z,45.23
2018-04-06T13:00:32.065Z,44.95
2018-04-06T13:03:36.406Z,46.55
2018-04-06T13:06:39.753Z,46.68
2018-04-06T13:09:43.099Z,45.98
2018-04-06T13:12:46.536Z,45.26
2018-04-06T13:15:49.968Z,45.58
2018-04-06T13:18:54.111Z,44.75
2018-04-06T13:21:57.499Z,43.58
2018-04-06T13:25:01.621Z,43.59
2018-04-06T13:28:05.011Z,43.88
2018-04-06T13:31:09.179Z,42.69
2018-04-06T13:34:12.657Z,43.60
2018-04-06T13:37:16.036Z,42.24
2018-04-06T13:40:20.179Z,40.36
2018-04-06T13:43:23.559Z,41.36
2018-04-06T13:46:26.918Z,42.62
2018-04-06T13:49:30.295Z,42.15
2018-04-06T13:52:33.672Z,41.56
2018-04-06T13:55:37.065Z,40.80
2018-04-06T13:58:40.434Z,39.79
2018-04-06T14:01:44.567Z,39.43
2018-04-06T14:04:47.925Z,41.30
2018-04-06T14:07:51.286Z,40.37
2018-04-06T14:10:54.655Z,41.52
2018-04-06T14:13:58.796Z,43.21
2018-04-06T14:17:02.209Z,42.59
2018-04-06T14:20:05.630Z,42.66
2018-04-06T14:23:09.027Z,42.18
2018-04-06T14:26:12.390Z,41.65
2018-04-06T14:29:15.750Z,42.78
2018-04-06T14:32:19.114Z,41.47
2018-04-06T14:35:22.491Z,43.09
2018-04-06T14:38:25.952Z,42.90
2018-04-06T14:41:29.322Z,42.38
2018-04-06T14:44:32.679Z,42.26
2018-04-06T14:47:36.044Z,41.62
2018-04-06T14:50:39.493Z,40.71
2018-04-06T14:53:42.880Z,41.76
2018-04-06T14:56:46.276Z,41.05
2018-04-06T14:59:49.642Z,41.16
2018-04-06T15:02:53.070Z,41.28
2018-04-06T15:05:57.221Z,41.48
2018-04-06T15:09:00.684Z,41.89
2018-04-06T15:12:04.066Z,41.04
2018-04-06T15:15:07.454Z,41.81
2018-04-06T15:18:10.882Z,41.60
2018-04-06T15:21:15.157Z,42.16
2018-04-06T15:24:18.609Z,42.90
2018-04-06T15:27:22.096Z,44.61
2018-04-06T15:30:26.339Z,44.69
2018-04-06T15:33:29.698Z,44.13
2018-04-06T15:36:33.073Z,43.82
2018-04-06T15:39:36.473Z,43.55
2018-04-06T15:42:39.827Z,43.10
2018-04-06T15:45:44.155Z,43.33
2018-04-06T15:48:47.532Z,43.13
2018-04-06T15:51:51.675Z,42.56
2018-04-06T15:54:55.099Z,41.71
2018-04-06T15:57:58.482Z,41.67
2018-04-06T16:01:01.875Z,39.01
2018-04-06T16:04:05.309Z,37.52
2018-04-06T16:07:08.693Z,36.87
2018-04-06T16:10:12.202Z,37.83
2018-04-06T16:13:15.577Z,38.00
2018-04-06T16:16:18.940Z,39.29
2018-04-06T16:19:23.082Z,41.36
2018-04-06T16:22:26.438Z,43.49
2018-04-06T16:25:29.819Z,43.32
2018-04-06T16:28:33.189Z,42.71
2018-04-06T16:31:36.642Z,43.21
2018-04-06T16:34:40.028Z,43.51
2018-04-06T16:37:43.402Z,42.66
2018-04-06T16:40:46.786Z,42.16
2018-04-06T16:43:50.138Z,42.98
2018-04-06T16:46:53.535Z,44.63
2018-04-06T16:49:56.915Z,46.69
2018-04-06T16:53:00.300Z,48.44
2018-04-06T16:56:03.662Z,49.74
2018-04-06T16:59:07.807Z,50.57
2018-04-06T17:02:11.231Z,52.06
2018-04-06T17:05:14.620Z,54.07
2018-04-06T17:08:18.009Z,55.28
2018-04-06T17:11:21.466Z,56.62
2018-04-06T17:14:24.920Z,57.43
2018-04-06T17:17:28.300Z,57.55
2018-04-06T17:20:31.670Z,58.49
2018-04-06T17:23:35.828Z,59.05
2018-04-06T17:26:39.203Z,60.23
2018-04-06T17:29:42.694Z,60.96
2018-04-06T17:32:46.955Z,61.65
2018-04-06T17:35:50.322Z,62.70
2018-04-06T17:38:54.539Z,63.66
2018-04-06T17:41:58.674Z,64.58
2018-04-06T17:45:02.054Z,65.52
2018-04-06T17:48:06.229Z,66.71
2018-04-06T17:51:09.604Z,67.84
2018-04-06T17:54:12.982Z,68.31
2018-04-06T17:57:16.428Z,68.84
2018-04-06T18:00:19.788Z,69.25
2018-04-06T18:03:23.165Z,69.12
2018-04-06T18:06:27.315Z,68.21
2018-04-06T18:09:30.696Z,68.33
2018-04-06T18:12:34.069Z,68.11
2018-04-06T18:15:37.428Z,67.69
2018-04-06T18:18:40.788Z,66.80
2018-04-06T18:21:44.926Z,66.93
2018-04-06T18:24:48.396Z,66.62
2018-04-06T18:27:52.598Z,67.10
2018-04-06T18:30:55.950Z,67.21
2018-04-06T18:34:00.102Z,67.62
2018-04-06T18:37:05.009Z,67.88
2018-04-06T18:40:08.425Z,67.65
2018-04-06T18:43:11.799Z,66.82
2018-04-06T18:46:15.166Z,67.34
2018-04-06T18:49:19.306Z,66.56
2018-04-06T18:52:22.704Z,67.10
2018-04-06T18:55:26.056Z,67.02
2018-04-06T18:58:29.491Z,66.81
2018-04-06T19:01:32.827Z,66.69
2018-04-06T19:04:36.222Z,66.55
2018-04-06T19:10:43.110Z,65.41
2018-04-06T19:13:46.491Z,65.61
2018-04-06T19:16:49.895Z,65.56
2018-04-06T19:19:53.266Z,65.90
2018-04-06T19:22:56.632Z,65.88
2018-04-06T19:26:00.110Z,65.96
2018-04-06T19:29:03.515Z,66.13
2018-04-06T19:32:06.883Z,66.52
2018-04-06T19:35:11.009Z,66.02
2018-04-06T19:38:14.382Z,66.35
2018-04-06T19:41:17.807Z,65.86
2018-04-06T19:44:21.183Z,66.26
2018-04-06T19:47:25.418Z,66.33
2018-04-06T19:50:29.527Z,65.98
2018-04-06T19:53:33.707Z,66.15
2018-04-06T19:56:37.111Z,66.74
2018-04-06T19:59:40.436Z,67.02
2018-04-06T20:02:44.567Z,66.79
2018-04-06T20:05:48.720Z,66.82
2018-04-06T20:08:52.104Z,66.83
2018-04-06T20:11:55.524Z,66.72
2018-04-06T20:14:58.877Z,66.02
2018-04-06T20:18:03.001Z,66.23
2018-04-06T20:21:07.132Z,66.58
2018-04-06T20:24:10.494Z,66.52
2018-04-06T20:27:13.941Z,66.52
2018-04-06T20:30:17.318Z,66.65
2018-04-06T20:33:21.438Z,66.08
2018-04-06T20:36:24.912Z,65.92
2018-04-06T20:39:28.282Z,65.96
2018-04-06T20:45:35.139Z,66.10
2018-04-06T20:48:38.532Z,66.12
2018-04-06T20:51:42.676Z,65.98
2018-04-06T20:54:46.063Z,66.29
2018-04-06T20:57:49.435Z,66.72
2018-04-06T21:00:52.827Z,67.07
2018-04-06T21:03:56.381Z,67.00
2018-04-06T21:06:59.744Z,67.11
2018-04-06T21:10:03.863Z,66.96
2018-04-06T21:13:07.990Z,67.23
2018-04-06T21:16:11.350Z,67.71
2018-04-06T21:19:14.753Z,67.59
2018-04-06T21:22:18.159Z,67.58
2018-04-06T21:25:21.538Z,67.88
2018-04-06T21:28:24.902Z,68.05
2018-04-06T21:31:28.271Z,67.41
2018-04-06T21:34:32.416Z,67.58
2018-04-06T21:37:35.797Z,66.96
2018-04-06T21:40:39.895Z,66.98
2018-04-06T21:43:43.320Z,66.95
2018-04-06T21:46:46.691Z,66.43
2018-04-06T21:49:50.066Z,66.40
2018-04-06T21:52:53.516Z,66.22
2018-04-06T21:59:00.284Z,65.99
2018-04-06T22:02:03.642Z,66.10
2018-04-06T22:05:07.371Z,66.02
2018-04-06T22:08:10.767Z,65.53
2018-04-06T22:11:14.200Z,64.93
2018-04-06T22:14:18.387Z,65.32
2018-04-06T22:17:21.753Z,65.39
2018-04-06T22:20:25.155Z,65.44
2018-04-06T22:23:28.521Z,65.01
2018-04-06T22:26:32.741Z,64.78
2018-04-06T22:29:36.898Z,64.55
2018-04-06T22:32:40.292Z,64.37
2018-04-06T22:35:43.650Z,64.70
2018-04-06T22:38:47.078Z,64.16
2018-04-06T22:41:50.464Z,64.26
2018-04-06T22:44:54.598Z,64.06
2018-04-06T22:47:57.966Z,64.36
2018-04-06T22:51:02.100Z,64.47
2018-04-06T22:54:06.242Z,64.74
2018-04-06T22:57:09.603Z,64.79
2018-04-06T23:00:13.718Z,65.20
2018-04-06T23:03:17.840Z,65.00
2018-04-06T23:06:21.992Z,64.93
2018-04-06T23:09:25.390Z,64.91
2018-04-06T23:12:28.775Z,65.50
2018-04-06T23:15:32.181Z,65.94
2018-04-06T23:18:35.589Z,66.08
2018-04-06T23:21:39.148Z,66.52
2018-04-06T23:24:42.507Z,66.38
2018-04-06T23:27:45.871Z,66.32
2018-04-06T23:30:49.221Z,66.33
2018-04-06T23:33:52.565Z,67.13
2018-04-06T23:36:56.925Z,67.29
2018-04-06T23:40:00.291Z,67.96
2018-04-06T23:43:03.641Z,68.08
2018-04-06T23:46:06.993Z,67.72
2018-04-06T23:49:10.342Z,68.18
2018-04-06T23:52:13.720Z,68.79
2018-04-06T23:55:17.074Z,68.32
2018-04-06T23:58:21.209Z,68.72
